createdAt,value
2019-06-10T00:00:23.919Z,18.10
2019-06-10T00:05:31.320Z,18.10
2019-06-10T00:10:42.259Z,18.20
2019-06-10T00:15:51.514Z,18.10
2019-06-10T00:21:01.949Z,18.10
2019-06-10T00:26:12.184Z,18.00
2019-06-10T00:31:20.612Z,18.00
2019-06-10T00:36:30.747Z,18.00
2019-06-10T00:41:37.638Z,18.00
2019-06-10T00:46:46.434Z,18.00
2019-06-10T00:51:54.874Z,17.90
2019-06-10T00:57:04.094Z,17.90
2019-06-10T01:02:14.309Z,17.90
2019-06-10T01:07:21.935Z,17.90
2019-06-10T01:12:31.611Z,17.90
2019-06-10T01:17:41.728Z,17.90
2019-06-10T01:22:51.248Z,17.90
2019-06-10T01:28:00.596Z,17.90
2019-06-10T01:33:08.696Z,17.90
2019-06-10T01:38:18.370Z,18.00
2019-06-10T01:43:27.181Z,18.00
2019-06-10T01:48:44.133Z,18.00
2019-06-10T01:53:44.763Z,18.00
2019-06-10T01:58:52.031Z,18.00
2019-06-10T02:04:00.892Z,18.10
2019-06-10T02:09:13.349Z,18.10
2019-06-10T02:14:20.352Z,18.20
2019-06-10T02:19:28.238Z,18.20
2019-06-10T02:24:36.260Z,18.30
2019-06-10T02:29:43.977Z,18.30
2019-06-10T02:35:03.520Z,18.40
2019-06-10T02:40:04.090Z,18.50
2019-06-10T02:45:17.361Z,18.50
2019-06-10T02:50:32.119Z,18.70
2019-06-10T02:55:35.111Z,18.70
2019-06-10T03:00:48.615Z,18.70
2019-06-10T03:05:53.683Z,18.70
2019-06-10T03:11:03.872Z,18.70
2019-06-10T03:16:17.795Z,18.70
2019-06-10T03:21:26.808Z,18.70
2019-06-10T03:26:44.471Z,18.60
2019-06-10T03:31:55.144Z,18.50
2019-06-10T03:37:02.460Z,18.70
2019-06-10T03:42:12.578Z,19.00
2019-06-10T03:47:21.809Z,19.00
2019-06-10T03:52:32.464Z,19.10
2019-06-10T03:57:42.105Z,19.20
2019-06-10T04:02:48.611Z,19.30
2019-06-10T04:07:55.936Z,19.30
2019-06-10T04:13:03.326Z,19.40
2019-06-10T04:18:14.246Z,19.40
2019-06-10T04:23:23.818Z,19.50
2019-06-10T04:28:33.484Z,19.60
2019-06-10T04:33:58.517Z,19.80
2019-06-10T04:39:07.951Z,19.80
2019-06-10T04:44:15.234Z,20.00
2019-06-10T04:49:28.644Z,20.10
2019-06-10T04:54:56.242Z,20.20
2019-06-10T05:00:11.291Z,20.30
2019-06-10T05:05:15.782Z,20.40
2019-06-10T05:10:26.437Z,20.60
2019-06-10T05:15:35.713Z,20.80
2019-06-10T05:21:04.753Z,21.00
2019-06-10T05:26:13.391Z,21.20
2019-06-10T05:36:28.653Z,21.60
2019-06-10T05:41:39.496Z,21.80
2019-06-10T05:47:07.093Z,22.00
2019-06-10T05:52:14.583Z,22.20
2019-06-10T05:57:25.771Z,22.40
2019-06-10T06:02:35.408Z,22.50
2019-06-10T06:07:42.648Z,22.70
2019-06-10T06:12:52.672Z,23.00
2019-06-10T06:18:09.420Z,23.20
2019-06-10T06:23:12.253Z,23.20
2019-06-10T06:28:19.829Z,23.30
2019-06-10T06:33:29.365Z,23.30
2019-06-10T06:38:38.380Z,23.40
2019-06-10T06:43:45.945Z,23.80
2019-06-10T06:48:53.476Z,23.90
2019-06-10T06:54:03.100Z,23.90
2019-06-10T06:59:09.936Z,24.10
2019-06-10T07:04:19.287Z,24.20
2019-06-10T07:09:33.076Z,23.70
2019-06-10T07:14:44.941Z,23.50
2019-06-10T07:19:52.986Z,23.30
2019-06-10T07:25:06.320Z,23.20
2019-06-10T07:30:15.207Z,22.70
2019-06-10T07:35:22.781Z,22.30
2019-06-10T07:40:33.399Z,22.50
2019-06-10T07:45:45.452Z,22.50
2019-06-10T07:50:53.215Z,22.70
2019-06-10T07:56:02.928Z,22.50
2019-06-10T08:01:27.644Z,22.70
2019-06-10T08:06:36.430Z,22.60
2019-06-10T08:11:48.289Z,23.10
2019-06-10T08:16:54.131Z,22.90
2019-06-10T08:22:03.050Z,23.20
2019-06-10T08:27:12.067Z,23.30
2019-06-10T08:32:20.243Z,23.40
2019-06-10T08:37:28.370Z,23.40
2019-06-10T08:42:36.579Z,23.50
2019-06-10T08:47:46.888Z,23.40
2019-06-10T08:53:09.138Z,23.50
2019-06-10T08:58:02.940Z,23.60
2019-06-10T09:03:12.456Z,23.50
2019-06-10T09:08:20.370Z,23.50
2019-06-10T09:13:28.073Z,23.60
2019-06-10T09:18:36.308Z,23.90
2019-06-10T09:23:49.547Z,23.70
2019-06-10T09:28:56.471Z,23.90
2019-06-10T09:34:04.435Z,24.20
2019-06-10T09:39:13.133Z,24.40
2019-06-10T09:44:22.899Z,24.40
2019-06-10T09:49:41.321Z,24.20
2019-06-10T09:54:56.284Z,24.10
2019-06-10T09:59:59.210Z,24.20
2019-06-10T10:05:10.989Z,23.90
2019-06-10T10:10:24.008Z,23.80
2019-06-10T10:15:34.598Z,23.30
2019-06-10T10:20:44.865Z,23.70
2019-06-10T10:25:56.250Z,23.50
2019-06-10T10:31:03.563Z,23.50
2019-06-10T10:36:13.253Z,23.50
2019-06-10T10:41:23.207Z,23.50
2019-06-10T10:46:32.626Z,23.80
2019-06-10T10:51:41.011Z,24.00
2019-06-10T10:56:49.621Z,24.20
2019-06-10T11:01:58.482Z,24.00
2019-06-10T11:07:05.878Z,24.30
2019-06-10T11:12:15.202Z,24.70
2019-06-10T11:17:23.470Z,24.90
2019-06-10T11:22:32.890Z,25.20
2019-06-10T11:27:39.981Z,25.50
2019-06-10T11:32:47.958Z,25.30
2019-06-10T11:37:56.691Z,25.50
2019-06-10T11:43:04.705Z,25.50
2019-06-10T11:48:12.946Z,25.50
2019-06-10T11:53:22.914Z,25.60
2019-06-10T11:58:33.338Z,25.40
2019-06-10T12:03:43.239Z,26.00
2019-06-10T12:08:54.129Z,26.20
2019-06-10T12:14:03.880Z,26.30
2019-06-10T12:19:12.546Z,26.50
2019-06-10T12:24:22.888Z,26.30
2019-06-10T12:29:30.577Z,26.40
2019-06-10T12:34:38.544Z,26.10
2019-06-10T12:40:12.879Z,26.30
2019-06-10T12:45:23.353Z,26.40
2019-06-10T12:50:31.100Z,26.40
2019-06-10T12:55:44.463Z,26.60
2019-06-10T13:00:49.525Z,26.90
2019-06-10T13:06:04.697Z,26.90
2019-06-10T13:11:12.546Z,26.60
2019-06-10T13:16:19.094Z,26.30
2019-06-10T13:21:26.633Z,25.80
2019-06-10T13:26:36.138Z,26.40
2019-06-10T13:31:44.851Z,26.40
2019-06-10T13:36:53.157Z,26.40
2019-06-10T13:42:06.871Z,26.40
2019-06-10T13:47:14.901Z,26.50
2019-06-10T13:52:24.552Z,26.10
2019-06-10T13:57:33.263Z,26.50
2019-06-10T14:02:42.967Z,26.80
2019-06-10T14:07:52.105Z,27.20
2019-06-10T14:12:59.314Z,27.60
2019-06-10T14:18:08.921Z,28.00
2019-06-10T14:23:17.659Z,27.70
2019-06-10T14:28:40.038Z,27.80
2019-06-10T14:33:35.411Z,27.90
2019-06-10T14:38:43.113Z,28.00
2019-06-10T14:43:52.964Z,28.40
2019-06-10T14:48:59.607Z,28.50
2019-06-10T14:54:09.355Z,28.40
2019-06-10T14:59:18.832Z,28.50
2019-06-10T15:04:26.924Z,28.40
2019-06-10T15:09:35.198Z,28.20
2019-06-10T15:14:43.428Z,28.40
2019-06-10T15:19:53.038Z,28.60
2019-06-10T15:25:03.220Z,28.40
2019-06-10T15:30:20.645Z,28.50
2019-06-10T15:35:24.327Z,28.40
2019-06-10T15:40:32.530Z,28.50
2019-06-10T15:45:40.020Z,28.50
2019-06-10T15:50:48.365Z,28.50
2019-06-10T15:56:13.081Z,28.40
2019-06-10T16:01:07.261Z,28.60
2019-06-10T16:06:15.986Z,28.60
2019-06-10T16:11:44.316Z,27.80
2019-06-10T16:16:52.583Z,27.80
2019-06-10T16:22:03.259Z,27.50
2019-06-10T16:27:12.628Z,27.40
2019-06-10T16:32:23.209Z,27.10
2019-06-10T16:37:32.669Z,27.00
2019-06-10T16:42:39.677Z,26.90
2019-06-10T16:47:47.078Z,27.00
2019-06-10T16:52:55.846Z,27.00
2019-06-10T16:58:08.271Z,26.90
2019-06-10T17:03:28.679Z,26.70
2019-06-10T17:08:36.655Z,26.60
2019-06-10T17:13:44.890Z,26.50
2019-06-10T17:18:52.201Z,26.40
2019-06-10T17:23:59.686Z,26.30
2019-06-10T17:29:07.826Z,26.30
2019-06-10T17:34:15.172Z,26.00
2019-06-10T17:39:34.516Z,25.70
2019-06-10T17:44:42.862Z,25.80
2019-06-10T17:49:50.275Z,25.90
2019-06-10T17:54:58.749Z,25.80
2019-06-10T18:00:14.778Z,25.70
2019-06-10T18:05:22.519Z,25.60
2019-06-10T18:10:33.198Z,25.40
2019-06-10T18:15:41.559Z,25.40
2019-06-10T18:20:49.375Z,25.30
2019-06-10T18:25:58.730Z,25.20
2019-06-10T18:31:08.124Z,25.20
2019-06-10T18:36:36.281Z,25.00
2019-06-10T18:41:46.025Z,24.90
2019-06-10T18:46:53.695Z,24.90
2019-06-10T18:52:01.886Z,24.70
2019-06-10T18:57:09.190Z,24.60
2019-06-10T19:02:17.939Z,24.30
2019-06-10T19:07:26.160Z,24.00
2019-06-10T19:12:37.031Z,23.20
2019-06-10T19:17:53.717Z,22.00
2019-06-10T19:23:02.689Z,20.70
2019-06-10T19:28:12.200Z,19.90
2019-06-10T19:33:23.633Z,19.70
2019-06-10T19:38:38.425Z,19.20
2019-06-10T19:43:46.068Z,19.10
2019-06-10T19:48:59.468Z,19.20
2019-06-10T19:54:03.521Z,19.00
2019-06-10T19:59:09.784Z,19.00
2019-06-10T20:04:18.145Z,19.00
2019-06-10T20:09:27.141Z,19.00
2019-06-10T20:14:34.904Z,18.80
2019-06-10T20:19:44.407Z,18.70
2019-06-10T20:24:52.335Z,18.70
2019-06-10T20:30:07.848Z,18.70
2019-06-10T20:35:08.179Z,18.70
2019-06-10T20:40:16.805Z,18.60
2019-06-10T20:45:24.618Z,18.50
2019-06-10T20:50:32.562Z,18.60
2019-06-10T20:55:49.056Z,18.60
2019-06-10T21:00:53.899Z,18.60
2019-06-10T21:05:59.691Z,18.60
2019-06-10T21:11:06.592Z,18.50
2019-06-10T21:16:15.664Z,18.40
2019-06-10T21:21:23.371Z,18.40
2019-06-10T21:26:32.714Z,18.30
2019-06-10T21:31:41.729Z,18.30
2019-06-10T21:36:49.632Z,18.20
2019-06-10T21:41:57.285Z,18.20
2019-06-10T21:47:05.915Z,18.20
2019-06-10T21:52:13.849Z,18.30
2019-06-10T21:57:22.081Z,18.40
2019-06-10T22:02:29.042Z,18.40
2019-06-10T22:07:35.846Z,18.40
2019-06-10T22:12:43.913Z,18.50
2019-06-10T22:17:53.338Z,18.50
2019-06-10T22:23:02.996Z,18.40
2019-06-10T22:28:10.177Z,18.50
2019-06-10T22:33:17.783Z,18.50
2019-06-10T22:38:24.608Z,18.50
2019-06-10T22:43:33.135Z,18.40
2019-06-10T23:09:26.947Z,17.80
2019-06-10T23:14:34.285Z,17.80
2019-06-10T23:19:42.898Z,17.60
2019-06-10T23:24:51.335Z,17.60
2019-06-10T23:30:00.306Z,17.70
2019-06-10T23:35:08.842Z,17.80
2019-06-10T23:40:16.949Z,17.80
2019-06-10T23:45:25.060Z,17.80
2019-06-10T23:50:33.020Z,17.80
2019-06-10T23:55:42.530Z,17.70
